Time;durP1;ratioP1;P1;durP2;ratioP2;P2;SDS_P1;SDS_P2;PMS_P1;PMS_P2;Temp;Humidity;BMP_temperature;BMP_pressure;BME280_temperature;BME280_humidity;BME280_pressure;Samples;Min_cycle;Max_cycle;Signal;HPM_P1;HPM_P2
2021/11/28 00:02:05;;;;;;;7.32;3.90;;;;;;;1.69;100.00;99178.03;6302762;28;20048;-79
2021/11/28 00:05:07;;;;;;;4.57;2.85;;;;;;;1.68;100.00;99186.69;6303237;28;20127;-78
2021/11/28 00:08:17;;;;;;;7.03;3.67;;;;;;;1.63;100.00;99184.28;6302961;28;20082;-78
2021/11/28 00:11:22;;;;;;;5.50;3.38;;;;;;;1.50;100.00;99186.56;6302776;28;20048;-78
2021/11/28 00:14:24;;;;;;;6.00;3.30;;;;;;;1.48;100.00;99185.78;6302557;28;20184;-78
2021/11/28 00:17:26;;;;;;;3.83;2.60;;;;;;;1.49;100.00;99186.59;6303324;28;20053;-78
2021/11/28 00:20:28;;;;;;;5.32;3.17;;;;;;;1.44;100.00;99189.38;6302601;28;20048;-78
2021/11/28 00:23:29;;;;;;;5.80;3.35;;;;;;;1.39;100.00;99191.31;6303897;28;20074;-78
2021/11/28 00:26:31;;;;;;;5.15;2.67;;;;;;;1.34;100.00;99198.44;6301547;28;20639;-79
2021/11/28 00:29:34;;;;;;;4.68;2.42;;;;;;;1.33;100.00;99196.75;6301142;28;20055;-79
2021/11/28 00:32:37;;;;;;;8.77;3.28;;;;;;;1.35;100.00;99200.13;6308938;28;20051;-78
2021/11/28 00:35:39;;;;;;;6.85;3.15;;;;;;;1.39;100.00;99203.44;6325682;28;20400;-78
2021/11/28 00:38:40;;;;;;;6.03;2.67;;;;;;;1.40;100.00;99200.75;6326630;28;20047;-78
2021/11/28 00:41:41;;;;;;;5.47;3.13;;;;;;;1.43;100.00;99198.06;6326424;28;20056;-78
2021/11/28 00:44:43;;;;;;;8.45;3.55;;;;;;;1.39;100.00;99198.25;6327739;28;20047;-79
2021/11/28 00:47:46;;;;;;;7.40;4.45;;;;;;;1.30;100.00;99193.44;6327553;28;20048;-78
2021/11/28 00:50:49;;;;;;;20.25;3.22;;;;;;;1.25;100.00;99197.06;6327031;28;20427;-79
2021/11/28 00:53:52;;;;;;;4.53;3.38;;;;;;;1.32;100.00;99201.97;6324349;28;20047;-78
2021/11/28 00:56:54;;;;;;;6.28;3.03;;;;;;;1.35;100.00;99201.88;6327064;28;20492;-78
2021/11/28 00:59:56;;;;;;;4.05;2.70;;;;;;;1.33;100.00;99208.84;6326324;28;20059;-78
2021/11/28 01:02:58;;;;;;;7.22;2.42;;;;;;;1.34;100.00;99219.13;6326656;28;20048;-78
2021/11/28 01:06:00;;;;;;;5.75;3.42;;;;;;;1.39;100.00;99214.63;6326654;28;20047;-79
2021/11/28 01:09:03;;;;;;;7.60;3.53;;;;;;;1.40;100.00;99224.06;6326186;28;20048;-78
2021/11/28 01:12:07;;;;;;;5.93;3.17;;;;;;;1.39;100.00;99226.72;6326271;28;20067;-78
2021/11/28 01:15:11;;;;;;;6.50;3.30;;;;;;;1.25;100.00;99215.16;6326592;28;20265;-79
2021/11/28 01:18:14;;;;;;;5.55;3.35;;;;;;;1.23;100.00;99219.59;6326417;28;20131;-78
2021/11/28 01:21:16;;;;;;;5.72;3.13;;;;;;;1.30;100.00;99222.75;6318401;28;20063;-79
2021/11/28 01:24:17;;;;;;;5.15;3.08;;;;;;;1.30;100.00;99222.75;6313752;28;20044;-78
2021/11/28 01:27:19;;;;;;;8.15;3.10;;;;;;;1.29;100.00;99226.25;6319995;28;20352;-78
2021/11/28 01:30:21;;;;;;;3.95;2.60;;;;;;;1.31;100.00;99228.75;6325431;28;20159;-79
2021/11/28 01:33:23;;;;;;;5.15;2.90;;;;;;;1.30;100.00;99232.25;6337285;28;20426;-79
2021/11/28 01:36:25;;;;;;;3.35;2.40;;;;;;;1.27;100.00;99236.66;6325763;28;20055;-78
2021/11/28 01:39:27;;;;;;;7.53;3.20;;;;;;;1.29;100.00;99246.13;6330810;28;20055;-78
2021/11/28 01:42:40;;;;;;;4.00;2.80;;;;;;;1.26;100.00;99240.13;6326038;28;20507;-79
2021/11/28 01:45:43;;;;;;;3.60;2.60;;;;;;;1.26;100.00;99241.88;6329248;28;20051;-78
2021/11/28 01:48:46;;;;;;;5.75;2.95;;;;;;;1.30;100.00;99240.03;6325710;28;20047;-78
2021/11/28 01:51:48;;;;;;;4.93;2.63;;;;;;;1.30;100.00;99240.88;6325870;28;20044;-78
2021/11/28 01:54:49;;;;;;;3.75;2.42;;;;;;;1.25;100.00;99241.03;6324169;28;20059;-79
2021/11/28 01:57:52;;;;;;;3.53;2.50;;;;;;;1.26;100.00;99236.72;6325323;28;20044;-79
2021/11/28 02:00:56;;;;;;;6.15;2.53;;;;;;;1.30;100.00;99240.88;6325081;28;20495;-79
2021/11/28 02:03:59;;;;;;;5.03;2.80;;;;;;;1.31;100.00;99242.53;6325481;28;20048;-78
2021/11/28 02:07:01;;;;;;;3.42;2.40;;;;;;;1.34;100.00;99246.75;6325449;28;20131;-78
2021/11/28 02:10:03;;;;;;;5.72;3.13;;;;;;;1.34;100.00;99244.19;6325271;28;20048;-78
2021/11/28 02:13:05;;;;;;;4.38;2.67;;;;;;;1.37;100.00;99247.50;6324938;28;20067;-78
2021/11/28 02:16:07;;;;;;;8.38;2.55;;;;;;;1.42;100.00;99244.72;6325058;28;20055;-78
2021/11/28 02:19:09;;;;;;;6.55;2.97;;;;;;;1.41;100.00;99245.59;6329082;28;20044;-79
2021/11/28 02:22:12;;;;;;;6.03;2.90;;;;;;;1.43;100.00;99238.63;6324529;28;20055;-78
2021/11/28 02:25:13;;;;;;;4.03;2.88;;;;;;;1.41;100.00;99232.66;6323701;28;20048;-78
2021/11/28 02:28:15;;;;;;;5.43;3.08;;;;;;;1.41;100.00;99237.84;6324596;28;20048;-79
2021/11/28 02:31:16;;;;;;;8.73;3.08;;;;;;;1.34;100.00;99233.81;6324580;28;20048;-78
2021/11/28 02:34:20;;;;;;;3.65;2.05;;;;;;;1.38;100.00;99225.88;6324584;28;20483;-78
2021/11/28 02:37:24;;;;;;;6.20;2.80;;;;;;;1.44;100.00;99232.53;6325161;28;20059;-79
2021/11/28 02:40:27;;;;;;;2.42;1.85;;;;;;;1.42;100.00;99231.78;6324761;28;20052;-78
2021/11/28 02:43:29;;;;;;;3.33;2.20;;;;;;;1.31;100.00;99224.44;6324551;28;20051;-79
2021/11/28 02:46:31;;;;;;;4.75;2.72;;;;;;;1.32;100.00;99230.44;6324367;28;20185;-78
2021/11/28 02:49:32;;;;;;;5.20;2.88;;;;;;;1.24;100.00;99220.41;6324734;28;20048;-78
2021/11/28 02:52:35;;;;;;;6.90;2.78;;;;;;;1.24;100.00;99225.59;6324567;28;20051;-79
2021/11/28 02:55:39;;;;;;;3.13;2.20;;;;;;;1.28;100.00;99232.34;6321978;28;20043;-79
2021/11/28 02:58:40;;;;;;;5.35;2.72;;;;;;;1.32;100.00;99230.44;6323295;28;20426;-78
2021/11/28 03:01:42;;;;;;;3.22;1.95;;;;;;;1.35;100.00;99231.16;6324331;28;20105;-78
2021/11/28 03:04:43;;;;;;;9.40;2.92;;;;;;;1.35;100.00;99227.75;6324027;28;20052;-78
2021/11/28 03:07:46;;;;;;;7.00;3.05;;;;;;;1.36;100.00;99226.81;6323839;28;20048;-78
2021/11/28 03:10:50;;;;;;;3.75;2.15;;;;;;;1.33;100.00;99229.56;6323733;28;20059;-79
2021/11/28 03:13:54;;;;;;;3.78;2.33;;;;;;;1.36;100.00;99225.09;6323366;28;20055;-78
2021/11/28 03:16:55;;;;;;;5.03;2.30;;;;;;;1.36;100.00;99229.41;6324346;28;20048;-78
2021/11/28 03:19:56;;;;;;;4.15;2.75;;;;;;;1.37;100.00;99231.13;6323564;28;20411;-79
2021/11/28 03:22:59;;;;;;;3.00;2.40;;;;;;;1.38;100.00;99223.28;6323887;28;20048;-78
2021/11/28 03:26:10;;;;;;;5.85;3.05;;;;;;;1.41;100.00;99230.94;6327033;28;20418;-79
2021/11/28 03:29:14;;;;;;;3.53;2.33;;;;;;;1.41;100.00;99235.25;6328649;28;20044;-79
2021/11/28 03:32:16;;;;;;;6.75;2.80;;;;;;;1.40;100.00;99233.56;6329523;28;20052;-78
2021/11/28 03:35:18;;;;;;;4.93;2.53;;;;;;;1.39;100.00;99237.91;6337501;28;20047;-78
2021/11/28 03:38:20;;;;;;;3.78;2.45;;;;;;;1.37;100.00;99244.06;6328726;28;20048;-79
2021/11/28 03:41:25;;;;;;;3.88;1.75;;;;;;;1.33;100.00;99247.69;6329347;28;20048;-78
2021/11/28 03:44:29;;;;;;;5.93;2.63;;;;;;;1.29;100.00;99246.94;6328329;28;20048;-79
2021/11/28 03:47:30;;;;;;;4.35;2.22;;;;;;;1.29;100.00;99251.28;6328715;28;20130;-79
2021/11/28 03:50:32;;;;;;;3.65;2.03;;;;;;;1.26;100.00;99247.91;6328277;28;20513;-78
2021/11/28 03:53:35;;;;;;;5.93;2.50;;;;;;;1.25;100.00;99255.72;6331702;28;20048;-78
2021/11/28 03:56:36;;;;;;;8.75;3.50;;;;;;;1.18;100.00;99249.09;6328531;28;20483;-79
2021/11/28 03:59:38;;;;;;;4.53;3.13;;;;;;;1.12;100.00;99247.59;6328085;28;20048;-78
2021/11/28 04:02:40;;;;;;;4.68;2.08;;;;;;;1.08;100.00;99248.63;6327782;28;20048;-78
2021/11/28 04:05:42;;;;;;;5.28;2.42;;;;;;;1.05;100.00;99241.00;6327576;28;20052;-78
2021/11/28 04:08:45;;;;;;;7.93;3.45;;;;;;;1.06;100.00;99247.00;6328425;28;20055;-78
2021/11/28 04:11:46;;;;;;;2.75;2.00;;;;;;;0.99;100.00;99247.22;6327505;28;20059;-78
2021/11/28 04:14:48;;;;;;;6.35;2.85;;;;;;;0.99;100.00;99248.97;6327744;28;20040;-78
2021/11/28 04:17:50;;;;;;;3.40;2.63;;;;;;;1.01;100.00;99242.84;6332403;28;20056;-77
2021/11/28 04:20:52;;;;;;;6.93;2.97;;;;;;;0.95;100.00;99242.22;6327248;28;20048;-78
2021/11/28 04:23:54;;;;;;;4.90;2.42;;;;;;;0.90;100.00;99242.41;6322550;28;20056;-79
2021/11/28 04:26:56;;;;;;;7.28;2.28;;;;;;;0.91;100.00;99245.84;6302133;28;20045;-79
2021/11/28 04:29:57;;;;;;;7.68;3.10;;;;;;;0.94;100.00;99241.38;6302175;28;20048;-78
2021/11/28 04:32:59;;;;;;;7.82;3.10;;;;;;;0.92;100.00;99243.22;6312821;28;20059;-78
2021/11/28 04:36:00;;;;;;;6.40;2.45;;;;;;;0.89;100.00;99242.47;6327075;28;20048;-78
2021/11/28 04:39:03;;;;;;;4.00;2.92;;;;;;;0.89;100.00;99242.47;6326789;28;20056;-77
2021/11/28 04:42:05;;;;;;;9.02;3.45;;;;;;;0.89;100.00;99243.31;6326933;28;20498;-78
2021/11/28 04:45:09;;;;;;;10.43;3.10;;;;;;;0.92;100.00;99247.53;6326586;28;20052;-78
2021/11/28 04:48:10;;;;;;;5.22;3.10;;;;;;;0.93;100.00;99247.47;6326743;28;20134;-77
2021/11/28 04:51:11;;;;;;;6.40;3.10;;;;;;;0.92;100.00;99250.13;6325751;28;20071;-77
2021/11/28 04:54:15;;;;;;;7.05;3.30;;;;;;;0.86;100.00;99251.19;6316856;28;20053;-76
2021/11/28 04:57:19;;;;;;;4.25;2.92;;;;;;;0.91;100.00;99249.28;6301208;28;20135;-78
2021/11/28 05:00:22;;;;;;;4.25;2.83;;;;;;;0.96;100.00;99256.88;6300627;28;20044;-77
2021/11/28 05:03:24;;;;;;;3.88;3.03;;;;;;;0.93;100.00;99254.41;6299844;28;20052;-78
2021/11/28 05:06:25;;;;;;;8.55;3.00;;;;;;;0.93;100.00;99254.41;6299785;28;20127;-77
2021/11/28 05:09:28;;;;;;;5.75;3.72;;;;;;;0.85;100.00;99254.66;6300337;28;20049;-77
2021/11/28 05:12:29;;;;;;;4.57;2.83;;;;;;;0.89;100.00;99255.41;6299704;28;20415;-77
2021/11/28 05:15:31;;;;;;;5.22;2.92;;;;;;;0.86;100.00;99258.94;6315640;28;20051;-78
2021/11/28 05:18:32;;;;;;;6.53;3.22;;;;;;;0.83;100.00;99261.66;6332579;28;20051;-77
2021/11/28 05:21:34;;;;;;;6.07;3.35;;;;;;;0.89;100.00;99263.16;6324841;28;20059;-78
2021/11/28 05:24:36;;;;;;;7.80;4.40;;;;;;;0.93;100.00;99267.31;6322820;28;20059;-78
2021/11/28 05:27:38;;;;;;;8.00;3.83;;;;;;;0.92;100.00;99261.31;6324981;28;20066;-78
2021/11/28 05:30:40;;;;;;;4.50;3.17;;;;;;;0.92;100.00;99265.66;6324182;28;20077;-77
2021/11/28 05:33:41;;;;;;;6.18;3.80;;;;;;;0.94;100.00;99269.84;6326137;28;20048;-77
2021/11/28 05:36:43;;;;;;;5.63;3.70;;;;;;;0.98;100.00;99266.25;6329768;28;20479;-77
2021/11/28 05:39:46;;;;;;;8.15;3.88;;;;;;;1.01;100.00;99273.06;6323629;28;20044;-77
2021/11/28 05:42:49;;;;;;;5.97;3.72;;;;;;;1.02;100.00;99272.16;6326262;28;20055;-78
2021/11/28 05:45:51;;;;;;;4.90;3.15;;;;;;;1.00;100.00;99261.88;6324313;28;20054;-77
2021/11/28 05:48:52;;;;;;;9.90;3.38;;;;;;;1.00;100.00;99271.38;6324036;28;20063;-76
2021/11/28 05:51:53;;;;;;;7.00;4.53;;;;;;;1.05;100.00;99272.03;6323302;28;20532;-77
2021/11/28 05:54:56;;;;;;;8.90;5.28;;;;;;;1.00;100.00;99268.78;6316922;28;20048;-77
2021/11/28 05:57:58;;;;;;;7.55;3.63;;;;;;;1.00;100.00;99273.97;6321064;28;20074;-77
2021/11/28 06:01:00;;;;;;;4.80;3.33;;;;;;;0.94;100.00;99277.59;6324767;28;20055;-77
2021/11/28 06:04:01;;;;;;;6.30;3.80;;;;;;;0.98;100.00;99265.41;6323950;28;20052;-77
2021/11/28 06:07:03;;;;;;;5.53;3.42;;;;;;;0.96;100.00;99260.31;6317757;28;20427;-77
2021/11/28 06:10:07;;;;;;;10.43;4.18;;;;;;;1.00;100.00;99266.19;6311670;28;20041;-78
2021/11/28 06:13:08;;;;;;;5.40;3.97;;;;;;;1.08;100.00;99277.06;6310407;28;20051;-78
2021/11/28 06:16:10;;;;;;;6.65;3.70;;;;;;;1.04;100.00;99272.06;6322199;28;20044;-77
2021/11/28 06:19:11;;;;;;;4.43;3.65;;;;;;;1.07;100.00;99277.16;6324140;28;20044;-78
2021/11/28 06:22:13;;;;;;;6.47;3.55;;;;;;;1.05;100.00;99281.53;6323590;28;20055;-78
2021/11/28 06:25:16;;;;;;;6.40;3.58;;;;;;;1.01;100.00;99281.66;6322978;28;20044;-78
2021/11/28 06:28:17;;;;;;;5.88;3.78;;;;;;;1.04;100.00;99285.00;6324388;28;20052;-78
2021/11/28 06:31:18;;;;;;;4.75;3.17;;;;;;;1.06;100.00;99291.00;6323916;28;20048;-78
2021/11/28 06:34:20;;;;;;;6.32;4.15;;;;;;;1.05;100.00;99292.72;6324133;28;20047;-78
2021/11/28 06:37:21;;;;;;;4.80;3.45;;;;;;;1.09;100.00;99304.66;6324178;28;20040;-77
2021/11/28 06:40:24;;;;;;;9.00;4.43;;;;;;;1.14;100.00;99301.91;6323458;28;20522;-78
2021/11/28 06:43:25;;;;;;;6.32;4.22;;;;;;;1.18;100.00;99298.25;6324050;28;20048;-77
2021/11/28 06:46:27;;;;;;;5.68;3.08;;;;;;;1.15;100.00;99303.56;6323756;28;20075;-78
2021/11/28 06:49:28;;;;;;;4.30;3.05;;;;;;;1.17;100.00;99302.59;6321422;28;20408;-78
2021/11/28 06:52:30;;;;;;;5.60;3.65;;;;;;;1.18;100.00;99306.88;6323378;28;20048;-78
2021/11/28 06:55:33;;;;;;;10.25;4.13;;;;;;;1.22;100.00;99310.19;6321571;28;20041;-78
2021/11/28 06:58:35;;;;;;;7.00;3.35;;;;;;;1.20;100.00;99312.00;6325374;28;20047;-79
2021/11/28 07:01:37;;;;;;;5.68;3.50;;;;;;;1.26;100.00;99314.34;6328674;28;20388;-78
2021/11/28 07:04:39;;;;;;;5.57;3.28;;;;;;;1.31;100.00;99315.00;6332946;28;20430;-79
2021/11/28 07:07:41;;;;;;;8.77;3.83;;;;;;;1.30;100.00;99315.06;6328577;28;20097;-78
2021/11/28 07:10:43;;;;;;;9.65;3.65;;;;;;;1.32;100.00;99316.72;6328850;28;20562;-79
2021/11/28 07:13:45;;;;;;;6.25;4.88;;;;;;;1.29;100.00;99318.56;6328920;28;20051;-78
2021/11/28 07:16:46;;;;;;;5.72;3.17;;;;;;;1.27;100.00;99322.06;6328534;28;20055;-78
2021/11/28 07:19:48;;;;;;;5.80;3.55;;;;;;;1.26;100.00;99327.28;6328586;28;20044;-78
2021/11/28 07:22:49;;;;;;;11.48;3.63;;;;;;;1.27;100.00;99329.81;6327568;28;20055;-79
2021/11/28 07:25:52;;;;;;;13.70;4.22;;;;;;;1.25;100.00;99326.44;6328102;28;20059;-78
2021/11/28 07:28:54;;;;;;;10.77;5.53;;;;;;;1.24;100.00;99331.69;6328695;28;20059;-79
2021/11/28 07:31:55;;;;;;;6.63;3.40;;;;;;;1.22;100.00;99326.53;6332322;28;20482;-79
2021/11/28 07:34:57;;;;;;;3.90;2.92;;;;;;;1.21;100.00;99337.81;6332584;28;20051;-79
2021/11/28 07:37:58;;;;;;;8.55;3.83;;;;;;;1.18;100.00;99337.06;6315032;28;20138;-79
2021/11/28 07:41:02;;;;;;;5.35;3.10;;;;;;;1.20;100.00;99346.47;6327137;28;20048;-78
2021/11/28 07:44:03;;;;;;;5.38;2.40;;;;;;;1.17;100.00;99346.56;6327537;28;20055;-80
2021/11/28 07:47:05;;;;;;;7.82;4.40;;;;;;;1.16;100.00;99342.31;6329705;28;20052;-81
2021/11/28 07:50:09;;;;;;;5.32;3.25;;;;;;;1.14;100.00;99346.72;6333677;28;20052;-80
2021/11/28 07:53:10;;;;;;;5.30;3.53;;;;;;;1.16;100.00;99346.66;6326653;28;20048;-80
2021/11/28 07:56:13;;;;;;;6.55;2.97;;;;;;;1.17;100.00;99341.41;6327816;28;20624;-80
2021/11/28 07:59:15;;;;;;;7.30;3.80;;;;;;;1.16;100.00;99351.81;6325987;28;20044;-80
2021/11/28 08:02:18;;;;;;;3.92;3.08;;;;;;;1.16;100.00;99359.59;6328225;28;20063;-79
2021/11/28 08:05:20;;;;;;;9.27;6.03;;;;;;;1.18;100.00;99355.19;6328726;28;20059;-79
2021/11/28 08:08:21;;;;;;;4.13;3.25;;;;;;;1.18;100.00;99361.22;6327975;28;20051;-79
2021/11/28 08:11:24;;;;;;;5.53;3.35;;;;;;;1.23;100.00;99361.06;6325734;28;20052;-80
2021/11/28 08:14:25;;;;;;;4.18;2.90;;;;;;;1.19;100.00;99365.50;6327124;28;20537;-80
2021/11/28 08:17:26;;;;;;;8.65;3.88;;;;;;;1.21;100.00;99361.09;6326401;28;20063;-79
2021/11/28 08:20:28;;;;;;;7.28;4.03;;;;;;;1.23;100.00;99376.56;6326428;28;20059;-80
2021/11/28 08:23:29;;;;;;;6.18;3.45;;;;;;;1.24;100.00;99371.34;6316460;28;20051;-79
2021/11/28 08:26:34;;;;;;;4.93;2.05;;;;;;;1.21;100.00;99376.59;6300333;28;20048;-78
2021/11/28 08:29:35;;;;;;;6.72;3.05;;;;;;;1.20;100.00;99389.63;6299959;28;20059;-79
2021/11/28 08:32:38;;;;;;;3.80;2.83;;;;;;;1.20;100.00;99387.88;6314599;28;20442;-79
2021/11/28 08:35:40;;;;;;;3.75;2.47;;;;;;;1.07;100.00;99391.81;6326735;28;20044;-79
2021/11/28 08:38:43;;;;;;;4.32;2.72;;;;;;;1.13;100.00;99388.97;6332639;28;20044;-79
2021/11/28 08:41:45;;;;;;;6.00;3.28;;;;;;;1.12;100.00;99389.03;6331539;28;20048;-79
2021/11/28 08:44:47;;;;;;;7.10;2.88;;;;;;;1.06;100.00;99389.28;6331576;28;20063;-79
2021/11/28 08:47:49;;;;;;;11.30;3.92;;;;;;;1.05;100.00;99390.19;6331808;28;20048;-79
2021/11/28 08:50:50;;;;;;;6.72;3.35;;;;;;;1.03;100.00;99387.63;6332421;28;20055;-79
2021/11/28 08:53:52;;;;;;;5.63;3.75;;;;;;;1.02;100.00;99393.72;6331092;28;20050;-79
2021/11/28 08:56:54;;;;;;;5.72;3.42;;;;;;;1.00;100.00;99393.78;6326395;28;20044;-80
2021/11/28 08:59:56;;;;;;;5.30;3.80;;;;;;;1.00;100.00;99386.03;6326821;28;20410;-79
2021/11/28 09:02:57;;;;;;;5.47;3.05;;;;;;;1.01;100.00;99387.69;6314436;28;20531;-79
2021/11/28 09:05:59;;;;;;;5.82;3.50;;;;;;;1.05;100.00;99393.63;6313937;28;20411;-79
2021/11/28 09:09:00;;;;;;;5.47;3.15;;;;;;;1.01;100.00;99384.28;6321995;28;20047;-79
2021/11/28 09:12:04;;;;;;;7.38;4.25;;;;;;;0.96;100.00;99393.94;6300201;28;20048;-79
2021/11/28 09:15:06;;;;;;;6.20;2.92;;;;;;;0.98;100.00;99392.13;6301457;28;20132;-79
2021/11/28 09:18:12;;;;;;;5.47;3.80;;;;;;;0.99;100.00;99381.72;6306036;28;20037;-79
2021/11/28 09:21:15;;;;;;;5.88;2.75;;;;;;;1.04;100.00;99384.16;6301040;28;20060;-79
2021/11/28 09:27:38;;;;;;;7.88;3.45;;;;;;;1.13;100.00;99382.97;6300613;28;20048;-79
2021/11/28 09:30:40;;;;;;;13.75;3.20;;;;;;;1.14;100.00;99380.34;6300126;28;20198;-79
2021/11/28 09:33:42;;;;;;;7.75;3.17;;;;;;;1.14;100.00;99372.59;6331125;28;20048;-79
2021/11/28 09:36:43;;;;;;;5.85;3.33;;;;;;;1.19;100.00;99373.25;6323717;28;20157;-78
2021/11/28 09:39:45;;;;;;;13.30;4.63;;;;;;;1.22;100.00;99365.34;6325354;28;20052;-78
2021/11/28 09:42:52;;;;;;;5.78;3.35;;;;;;;1.29;100.00;99365.16;6336467;28;20081;-79
2021/11/28 09:45:55;;;;;;;5.03;3.95;;;;;;;1.31;100.00;99363.31;6329714;28;20056;-78
2021/11/28 09:48:59;;;;;;;7.93;4.03;;;;;;;1.31;100.00;99363.31;6323651;28;20062;-79
2021/11/28 09:52:05;;;;;;;5.25;3.38;;;;;;;1.35;100.00;99367.50;6325601;28;20522;-79
2021/11/28 09:55:08;;;;;;;4.22;2.60;;;;;;;1.37;100.00;99366.53;6325310;28;20044;-79
2021/11/28 09:58:11;;;;;;;7.03;3.45;;;;;;;1.42;100.00;99367.22;6323296;28;20044;-78
2021/11/28 10:01:13;;;;;;;6.05;3.22;;;;;;;1.48;100.00;99368.72;6322617;28;20518;-79
2021/11/28 10:04:14;;;;;;;4.47;3.20;;;;;;;1.51;100.00;99368.59;6319018;28;20174;-77
2021/11/28 10:07:17;;;;;;;7.97;4.30;;;;;;;1.59;100.00;99370.88;6324976;28;20044;-78
2021/11/28 10:10:20;;;;;;;5.88;3.92;;;;;;;1.69;100.00;99370.47;6320419;28;20047;-78
2021/11/28 10:13:23;;;;;;;9.88;4.82;;;;;;;1.70;100.00;99366.97;6308496;28;20045;-78
2021/11/28 10:16:24;;;;;;;6.70;4.72;;;;;;;1.69;100.00;99367.03;6311258;28;20515;-80
2021/11/28 10:19:25;;;;;;;5.82;3.85;;;;;;;1.74;100.00;99368.53;6311436;28;20052;-79
2021/11/28 10:22:28;;;;;;;9.18;4.95;;;;;;;1.80;100.00;99370.03;6314422;28;20048;-80
2021/11/28 10:25:32;;;;;;;6.55;3.67;;;;;;;1.82;100.00;99370.84;6320634;28;20487;-78
2021/11/28 10:28:34;;;;;;;10.05;3.83;;;;;;;1.88;100.00;99365.41;6316368;28;20041;-80
2021/11/28 10:31:44;;;;;;;5.70;4.10;;;;;;;1.94;100.00;99365.16;6302498;28;20075;-80
2021/11/28 10:34:48;;;;;;;;;;;;;;;1.93;100.00;99362.63;6317937;28;20040;-80
2021/11/28 10:37:52;;;;;;;3.70;3.13;;;;;;;1.96;100.00;99358.19;6320699;28;19927;-80
2021/11/28 10:40:54;;;;;;;15.10;5.65;;;;;;;1.96;100.00;99357.34;6317519;28;20067;-80
2021/11/28 10:43:58;;;;;;;7.32;4.60;;;;;;;1.98;100.00;99368.47;6311822;28;20044;-79
2021/11/28 10:47:08;;;;;;;14.75;4.43;;;;;;;2.00;100.00;99367.50;6313868;28;20045;-80
2021/11/28 10:50:19;;;;;;;7.35;4.90;;;;;;;2.01;100.00;99366.59;6316991;28;20044;-80
2021/11/28 10:53:23;;;;;;;11.38;4.45;;;;;;;1.99;100.00;99373.56;6314724;28;20057;-79
2021/11/28 10:56:25;;;;;;;16.73;6.78;;;;;;;2.03;100.00;99380.31;6311611;28;20044;-80
2021/11/28 10:59:27;;;;;;;13.00;6.30;;;;;;;2.05;100.00;99377.69;6312368;28;20044;-79
2021/11/28 11:02:32;;;;;;;13.60;7.13;;;;;;;2.00;100.00;99377.88;6312734;28;20044;-80
2021/11/28 11:05:35;;;;;;;15.82;6.72;;;;;;;1.99;100.00;99386.53;6312080;28;20052;-79
2021/11/28 11:08:36;;;;;;;11.23;5.90;;;;;;;2.06;100.00;99383.72;6309650;28;20049;-79
2021/11/28 11:11:37;;;;;;;10.25;5.97;;;;;;;2.11;100.00;99376.59;6305811;28;20044;-79
2021/11/28 11:14:43;;;;;;;13.57;7.18;;;;;;;2.02;100.00;99381.22;6321874;28;20048;-79
2021/11/28 11:17:58;;;;;;;8.45;5.40;;;;;;;2.02;100.00;99378.66;6316142;28;20070;-80
2021/11/28 11:21:03;;;;;;;13.88;6.88;;;;;;;2.06;100.00;99386.31;6317076;28;20410;-78
2021/11/28 11:24:05;;;;;;;14.25;6.60;;;;;;;2.02;100.00;99378.66;6322125;28;20048;-79
2021/11/28 11:27:08;;;;;;;11.30;6.10;;;;;;;2.07;100.00;99373.28;6321883;28;20048;-79
2021/11/28 11:30:13;;;;;;;19.25;7.95;;;;;;;2.15;100.00;99370.38;6322253;28;20044;-80
2021/11/28 11:33:17;;;;;;;13.80;6.20;;;;;;;2.21;100.00;99375.31;6324174;28;20135;-79
2021/11/28 11:36:18;;;;;;;15.02;8.05;;;;;;;2.23;100.00;99374.34;6321807;28;20411;-79
2021/11/28 11:39:19;;;;;;;16.30;6.95;;;;;;;2.26;100.00;99379.38;6327420;28;20047;-79
2021/11/28 11:42:24;;;;;;;12.73;6.50;;;;;;;2.30;100.00;99369.75;6330911;28;20067;-76
2021/11/28 11:45:31;;;;;;;13.07;6.93;;;;;;;2.32;100.00;99361.88;6323229;28;20490;-80
2021/11/28 11:48:33;;;;;;;15.98;7.32;;;;;;;2.35;100.00;99364.34;6313181;28;20056;-80
2021/11/28 11:51:34;;;;;;;12.27;5.88;;;;;;;2.36;100.00;99351.31;6301493;28;20071;-80
2021/11/28 11:54:42;;;;;;;15.13;6.82;;;;;;;2.44;100.00;99351.84;6301162;28;20044;-80
2021/11/28 11:57:53;;;;;;;17.15;6.57;;;;;;;2.48;100.00;99347.38;6300608;28;20408;-80
2021/11/28 12:01:01;;;;;;;13.82;6.22;;;;;;;2.51;100.00;99350.69;6301032;28;20051;-80
2021/11/28 12:04:03;;;;;;;13.80;7.25;;;;;;;2.51;100.00;99353.28;6301318;28;20488;-80
2021/11/28 12:07:04;;;;;;;14.73;6.13;;;;;;;2.42;100.00;99345.06;6300663;28;20060;-80
2021/11/28 12:10:28;;;;;;;15.50;6.35;;;;;;;2.37;100.00;99347.00;6301252;28;20063;-79
2021/11/28 12:13:53;;;;;;;12.32;6.63;;;;;;;2.37;100.00;99347.00;6318460;28;20051;-79
2021/11/28 12:16:56;;;;;;;10.43;5.65;;;;;;;2.39;100.00;99353.78;6324335;28;20044;-80
2021/11/28 12:19:58;;;;;;;16.70;7.18;;;;;;;2.36;100.00;99359.09;6312706;28;20055;-79
2021/11/28 12:22:59;;;;;;;16.80;6.93;;;;;;;2.30;100.00;99356.78;6326331;28;20418;-80
2021/11/28 12:26:01;;;;;;;12.52;6.68;;;;;;;2.32;100.00;99359.28;6326452;28;20048;-80
2021/11/28 12:29:31;;;;;;;13.93;6.75;;;;;;;2.31;100.00;99360.22;6325799;28;20044;-80
2021/11/28 12:32:34;;;;;;;12.45;6.70;;;;;;;2.37;100.00;99363.41;6325390;28;20048;-79
2021/11/28 12:35:37;;;;;;;17.27;8.32;;;;;;;2.42;100.00;99356.28;6325336;28;20059;-80
2021/11/28 12:38:49;;;;;;;14.85;7.13;;;;;;;2.48;100.00;99357.75;6326219;28;20048;-80
2021/11/28 12:42:01;;;;;;;20.27;8.02;;;;;;;2.53;100.00;99359.22;6326622;28;20077;-80
2021/11/28 12:45:04;;;;;;;14.32;6.90;;;;;;;2.54;100.00;99366.13;6328309;28;20056;-80
2021/11/28 12:48:11;;;;;;;12.57;6.93;;;;;;;2.58;100.00;99359.03;6325019;28;20565;-80
2021/11/28 12:51:13;;;;;;;16.88;6.60;;;;;;;2.67;100.00;99363.00;6325760;28;20082;-79
2021/11/28 12:54:24;;;;;;;16.25;6.60;;;;;;;2.74;100.00;99369.59;6325351;28;20410;-79
2021/11/28 12:57:26;;;;;;;15.48;7.47;;;;;;;2.76;100.00;99368.63;6320409;28;20648;-79
2021/11/28 13:00:30;;;;;;;12.52;6.50;;;;;;;2.70;100.00;99371.47;6327465;28;20048;-79
2021/11/28 13:03:32;;;;;;;19.70;6.65;;;;;;;2.67;100.00;99371.59;6325440;28;20054;-80
2021/11/28 13:06:34;;;;;;;12.43;7.00;;;;;;;2.72;100.00;99371.41;6324773;28;20052;-80
2021/11/28 13:09:38;;;;;;;13.98;6.65;;;;;;;2.78;100.00;99376.34;6324419;28;20047;-80
2021/11/28 13:12:43;;;;;;;20.27;9.05;;;;;;;2.83;100.00;99376.16;6323912;28;20127;-81
2021/11/28 13:15:48;;;;;;;18.88;7.68;;;;;;;2.84;100.00;99370.03;6325741;28;20646;-80
2021/11/28 13:18:53;;;;;;;19.65;8.68;;;;;;;2.77;100.00;99375.50;6323128;28;20055;-80
2021/11/28 13:21:55;;;;;;;21.33;9.70;;;;;;;2.80;100.00;99380.53;6325271;28;20044;-79
2021/11/28 13:24:56;;;;;;;17.30;7.72;;;;;;;2.76;100.00;99376.41;6324513;28;20099;-79
2021/11/28 13:28:02;;;;;;;21.17;9.40;;;;;;;2.79;100.00;99381.47;6324268;28;20055;-79
2021/11/28 13:31:09;;;;;;;22.48;7.38;;;;;;;2.79;100.00;99381.47;6320639;28;20415;-75
2021/11/28 13:34:12;;;;;;;20.73;8.13;;;;;;;2.77;100.00;99385.00;6323255;28;20101;-80
2021/11/28 13:37:19;;;;;;;17.92;7.38;;;;;;;2.82;100.00;99380.50;6324337;28;20044;-80
2021/11/28 13:40:20;;;;;;;20.17;9.35;;;;;;;2.83;100.00;99384.78;6323821;28;20086;-80
2021/11/28 13:43:31;;;;;;;20.30;7.65;;;;;;;2.78;100.00;99384.13;6324506;28;20051;-80
2021/11/28 13:46:35;;;;;;;18.80;7.50;;;;;;;2.78;100.00;99381.53;6323716;28;20067;-80
2021/11/28 13:49:42;;;;;;;13.48;5.85;;;;;;;2.80;100.00;99385.72;6324383;28;20044;-80
2021/11/28 13:52:44;;;;;;;23.27;7.07;;;;;;;2.84;100.00;99380.41;6324335;28;20455;-80
2021/11/28 13:55:51;;;;;;;20.08;8.27;;;;;;;2.84;100.00;99381.25;6323688;28;20055;-80
2021/11/28 13:59:03;;;;;;;12.93;6.68;;;;;;;2.89;100.00;99376.72;6324339;28;20518;-80
2021/11/28 14:02:10;;;;;;;13.20;6.22;;;;;;;2.88;100.00;99379.38;6323949;28;20048;-81
2021/11/28 14:05:19;;;;;;;14.68;6.65;;;;;;;2.88;100.00;99392.34;6323241;28;20044;-79
2021/11/28 14:08:20;;;;;;;14.65;5.20;;;;;;;2.86;100.00;99397.63;6323188;28;20055;-80
2021/11/28 14:11:22;;;;;;;11.15;4.10;;;;;;;2.78;100.00;99397.09;6323177;28;20055;-80
2021/11/28 14:14:25;;;;;;;14.27;5.78;;;;;;;2.73;100.00;99397.31;6323405;28;20048;-80
2021/11/28 14:17:27;;;;;;;12.48;6.05;;;;;;;2.73;100.00;99399.06;6321596;28;20063;-80
2021/11/28 14:20:32;;;;;;;15.43;5.70;;;;;;;2.68;100.00;99403.56;6322787;28;20059;-80
2021/11/28 14:23:34;;;;;;;9.88;5.00;;;;;;;2.65;100.00;99407.16;6327601;28;20066;-79